createdAt,value
2022-12-08T00:01:15.674Z,64.97
2022-12-08T00:04:17.344Z,65.03
2022-12-08T00:07:37.371Z,65.26
2022-12-08T00:10:48.897Z,64.99
2022-12-08T00:13:51.092Z,65.13
2022-12-08T00:16:53.478Z,65.20
2022-12-08T00:19:55.021Z,65.15
2022-12-08T00:22:56.762Z,65.15
2022-12-08T00:26:02.445Z,65.30
2022-12-08T00:29:04.946Z,65.14
2022-12-08T00:32:06.978Z,65.13
2022-12-08T00:35:08.820Z,65.43
2022-12-08T00:38:10.405Z,65.16
2022-12-08T00:41:17.637Z,65.49
2022-12-08T00:44:19.416Z,65.52
2022-12-08T00:47:24.638Z,65.38
2022-12-08T00:50:26.580Z,65.42
2022-12-08T00:53:28.282Z,65.34
2022-12-08T00:56:30.257Z,65.19
2022-12-08T00:59:31.804Z,65.20
2022-12-08T01:02:34.433Z,65.38
2022-12-08T01:05:35.969Z,65.49
2022-12-08T01:08:38.119Z,65.50
2022-12-08T01:11:39.692Z,65.38
2022-12-08T01:14:41.227Z,65.37
2022-12-08T01:17:42.771Z,65.59
2022-12-08T01:20:44.295Z,65.56
2022-12-08T01:23:46.398Z,65.20
2022-12-08T01:26:49.824Z,65.24
2022-12-08T01:29:51.647Z,65.29
2022-12-08T01:32:53.183Z,65.40
2022-12-08T01:35:55.508Z,65.26
2022-12-08T01:38:59.621Z,65.56
2022-12-08T01:42:01.146Z,65.51
2022-12-08T01:45:07.693Z,65.45
2022-12-08T01:48:15.481Z,65.29
2022-12-08T01:51:17.677Z,65.28
2022-12-08T01:54:21.692Z,65.53
2022-12-08T01:57:43.382Z,65.27
2022-12-08T02:00:45.204Z,65.62
2022-12-08T02:04:02.076Z,65.50
2022-12-08T02:07:08.153Z,65.34
2022-12-08T02:10:14.482Z,65.56
2022-12-08T02:13:18.986Z,65.43
2022-12-08T02:16:35.872Z,65.66
2022-12-08T02:19:59.053Z,65.72
2022-12-08T02:23:05.974Z,65.74
2022-12-08T02:26:52.686Z,65.41
2022-12-08T02:30:05.946Z,65.53
2022-12-08T02:33:16.876Z,65.41
2022-12-08T02:36:35.456Z,65.53
2022-12-08T02:40:07.641Z,65.64
2022-12-08T02:43:33.055Z,65.68
2022-12-08T02:46:42.442Z,65.29
2022-12-08T02:49:44.171Z,65.52
2022-12-08T02:52:48.085Z,65.67
2022-12-08T02:56:31.806Z,65.31
2022-12-08T02:59:38.502Z,65.57
2022-12-08T03:02:40.007Z,65.40
2022-12-08T03:05:50.722Z,65.35
2022-12-08T03:08:56.155Z,65.67
2022-12-08T03:12:20.619Z,65.56
2022-12-08T03:15:23.017Z,65.57
2022-12-08T03:18:31.965Z,65.40
2022-12-08T03:21:35.131Z,65.29
2022-12-08T03:24:39.557Z,65.24
2022-12-08T03:27:41.643Z,65.47
2022-12-08T03:30:47.900Z,65.74
2022-12-08T03:33:52.576Z,65.64
2022-12-08T03:36:54.691Z,65.68
2022-12-08T03:39:56.919Z,65.36
2022-12-08T03:42:58.538Z,65.73
2022-12-08T03:46:00.132Z,65.42
2022-12-08T03:49:01.764Z,65.63
2022-12-08T03:52:03.584Z,65.45
2022-12-08T03:55:05.667Z,65.74
2022-12-08T03:58:07.192Z,65.68
2022-12-08T04:01:08.852Z,65.70
2022-12-08T04:04:10.355Z,65.42
2022-12-08T04:07:11.890Z,65.43
2022-12-08T04:10:13.511Z,65.54
2022-12-08T04:13:15.157Z,65.63
2022-12-08T04:16:22.577Z,65.44
2022-12-08T04:19:24.163Z,65.66
2022-12-08T04:22:25.662Z,65.71
2022-12-08T04:25:27.777Z,65.69
2022-12-08T04:28:32.443Z,65.38
2022-12-08T04:31:34.014Z,65.58
2022-12-08T04:34:35.587Z,65.69
2022-12-08T04:37:37.139Z,65.41
2022-12-08T04:40:39.225Z,65.73
2022-12-08T04:43:41.666Z,65.45
2022-12-08T04:46:43.781Z,65.52
2022-12-08T04:49:45.507Z,65.53
2022-12-08T04:52:47.182Z,65.44
2022-12-08T04:55:49.698Z,65.58
2022-12-08T04:58:51.316Z,65.57
2022-12-08T05:01:52.958Z,65.73
2022-12-08T05:04:54.747Z,65.62
2022-12-08T05:07:56.305Z,65.80
2022-12-08T05:11:10.069Z,65.66
2022-12-08T05:14:13.559Z,65.58
2022-12-08T05:17:18.750Z,65.47
2022-12-08T05:20:20.314Z,65.48
2022-12-08T05:23:22.066Z,65.46
2022-12-08T05:26:23.639Z,65.45
2022-12-08T05:29:25.213Z,65.75
2022-12-08T05:32:26.818Z,65.73
2022-12-08T05:35:28.330Z,65.70
2022-12-08T05:38:29.931Z,65.57
2022-12-08T05:41:31.508Z,65.58
2022-12-08T05:44:33.018Z,65.67
2022-12-08T05:47:36.206Z,65.42
2022-12-08T05:50:37.973Z,65.50
2022-12-08T05:53:39.554Z,65.55
2022-12-08T05:56:41.150Z,65.44
2022-12-08T05:59:42.697Z,65.59
2022-12-08T06:02:44.368Z,65.51
2022-12-08T06:05:47.146Z,65.41
2022-12-08T06:08:49.138Z,65.92
2022-12-08T06:11:50.768Z,66.11
2022-12-08T06:14:52.456Z,65.55
2022-12-08T06:17:54.009Z,65.44
2022-12-08T06:21:05.659Z,65.63
2022-12-08T06:24:07.457Z,65.63
2022-12-08T06:27:09.023Z,65.24
2022-12-08T06:30:10.761Z,65.58
2022-12-08T06:33:12.330Z,65.31
2022-12-08T06:36:15.576Z,65.66
2022-12-08T06:39:17.113Z,65.55
2022-12-08T06:42:37.367Z,65.45
2022-12-08T06:45:40.979Z,65.41
2022-12-08T06:48:42.630Z,65.12
2022-12-08T06:51:44.239Z,65.39
2022-12-08T06:54:45.775Z,65.20
2022-12-08T06:57:47.268Z,65.33
2022-12-08T07:00:49.124Z,65.07
2022-12-08T07:03:50.693Z,65.05
2022-12-08T07:06:52.272Z,65.31
2022-12-08T07:09:53.879Z,65.47
2022-12-08T07:12:55.496Z,65.12
2022-12-08T07:15:57.032Z,65.24
2022-12-08T07:18:59.943Z,65.29
2022-12-08T07:22:01.508Z,65.21
2022-12-08T07:25:03.183Z,65.38
2022-12-08T07:28:08.727Z,65.33
2022-12-08T07:31:30.550Z,65.32
2022-12-08T07:34:32.065Z,65.39
2022-12-08T07:37:34.778Z,65.27
2022-12-08T07:40:38.338Z,65.52
2022-12-08T07:43:40.549Z,65.34
2022-12-08T07:46:42.177Z,65.40
2022-12-08T07:49:43.831Z,65.64
2022-12-08T07:52:45.386Z,65.64
2022-12-08T07:55:47.138Z,65.31
2022-12-08T07:58:48.967Z,66.73
2022-12-08T08:02:06.499Z,66.15
2022-12-08T08:05:13.000Z,65.64
2022-12-08T08:08:14.747Z,65.58
2022-12-08T08:11:20.904Z,65.44
2022-12-08T08:14:23.288Z,65.57
2022-12-08T08:17:25.126Z,65.54
2022-12-08T08:20:27.039Z,65.38
2022-12-08T08:23:28.622Z,65.73
2022-12-08T08:26:30.171Z,65.32
2022-12-08T08:29:31.726Z,65.49
2022-12-08T08:32:34.504Z,65.25
2022-12-08T08:35:36.101Z,65.41
2022-12-08T08:38:40.439Z,65.60
2022-12-08T08:41:42.270Z,65.82
2022-12-08T08:44:43.822Z,65.58
2022-12-08T08:47:45.454Z,65.46
2022-12-08T08:50:47.034Z,65.55
2022-12-08T08:53:48.684Z,65.59
2022-12-08T08:56:50.284Z,65.86
2022-12-08T08:59:51.796Z,65.57
2022-12-08T09:02:53.348Z,65.65
2022-12-08T09:05:56.244Z,65.62
2022-12-08T09:08:57.949Z,65.48
2022-12-08T09:11:59.489Z,65.42
2022-12-08T09:15:01.074Z,65.69
2022-12-08T09:18:02.660Z,65.63
2022-12-08T09:21:09.857Z,65.55
2022-12-08T09:24:15.743Z,65.71
2022-12-08T09:27:17.314Z,66.04
2022-12-08T09:30:18.810Z,65.99
2022-12-08T09:33:20.539Z,66.08
2022-12-08T09:36:22.262Z,66.43
2022-12-08T09:39:24.117Z,67.56
2022-12-08T09:42:47.650Z,68.11
2022-12-08T09:45:51.708Z,67.37
2022-12-08T09:48:56.074Z,66.20
2022-12-08T09:51:57.976Z,65.45
2022-12-08T09:55:03.280Z,65.11
2022-12-08T09:58:12.481Z,65.52
2022-12-08T10:01:14.724Z,65.19
2022-12-08T10:04:26.690Z,65.07
2022-12-08T10:07:43.726Z,65.20
2022-12-08T10:10:58.524Z,65.37
2022-12-08T10:14:53.234Z,65.57
2022-12-08T10:17:56.136Z,65.45
2022-12-08T10:21:10.687Z,65.78
2022-12-08T10:24:50.936Z,65.68
2022-12-08T10:27:54.783Z,65.83
2022-12-08T10:30:56.433Z,65.49
2022-12-08T10:34:01.093Z,65.59
2022-12-08T10:37:09.627Z,65.64
2022-12-08T10:40:13.201Z,65.74
2022-12-08T10:43:22.089Z,65.44
2022-12-08T10:46:28.206Z,65.65
2022-12-08T10:49:32.411Z,65.55
2022-12-08T10:52:39.163Z,65.84
2022-12-08T10:55:52.673Z,65.68
2022-12-08T10:59:14.886Z,65.78
2022-12-08T11:02:20.382Z,65.49
2022-12-08T11:05:26.096Z,65.84
2022-12-08T11:08:29.593Z,65.40
2022-12-08T11:11:38.683Z,65.20
2022-12-08T11:14:43.007Z,65.66
2022-12-08T11:17:48.701Z,65.75
2022-12-08T11:21:05.917Z,65.70
2022-12-08T11:24:21.819Z,65.59
2022-12-08T11:27:23.496Z,65.40
2022-12-08T11:30:31.140Z,65.59
2022-12-08T11:33:34.651Z,65.49
2022-12-08T11:36:38.199Z,65.20
2022-12-08T11:39:47.828Z,65.52
2022-12-08T11:43:06.183Z,65.35
2022-12-08T11:46:13.467Z,65.28
2022-12-08T11:49:15.586Z,65.65
2022-12-08T11:52:20.168Z,65.60
2022-12-08T11:55:37.340Z,65.40
2022-12-08T11:59:18.580Z,67.34
2022-12-08T12:02:24.194Z,66.26
2022-12-08T12:06:12.950Z,65.96
2022-12-08T12:09:55.527Z,65.34
2022-12-08T12:13:34.143Z,65.40
2022-12-08T12:16:54.040Z,65.13
2022-12-08T12:20:00.988Z,65.38
2022-12-08T12:23:08.154Z,65.42
2022-12-08T12:26:18.978Z,65.35
2022-12-08T12:29:23.827Z,65.57
2022-12-08T12:32:27.311Z,65.50
2022-12-08T12:35:34.552Z,65.44
2022-12-08T12:38:59.078Z,65.75
2022-12-08T12:42:02.667Z,65.54
2022-12-08T12:45:16.458Z,65.27
2022-12-08T12:48:24.619Z,65.69
2022-12-08T12:51:36.504Z,65.59
2022-12-08T12:54:43.229Z,65.41
2022-12-08T12:57:57.251Z,65.69
2022-12-08T13:01:14.050Z,65.58
2022-12-08T13:04:17.374Z,65.26
2022-12-08T13:07:25.533Z,65.18
2022-12-08T13:10:40.192Z,65.59
2022-12-08T13:14:04.716Z,65.52
2022-12-08T13:17:13.643Z,65.50
2022-12-08T13:20:47.381Z,65.72
2022-12-08T13:24:10.646Z,65.32
2022-12-08T13:27:12.159Z,65.52
2022-12-08T13:30:43.478Z,67.40
2022-12-08T13:33:45.113Z,66.57
2022-12-08T13:37:02.506Z,65.90
2022-12-08T13:40:16.617Z,65.64
2022-12-08T13:43:55.581Z,65.56
2022-12-08T13:52:37.336Z,65.10
2022-12-08T13:57:42.804Z,65.31
2022-12-08T14:00:54.982Z,65.09
2022-12-08T14:04:30.938Z,65.27
2022-12-08T14:07:21.231Z,65.32
2022-12-08T14:10:27.814Z,65.33
2022-12-08T14:13:31.752Z,65.41
2022-12-08T14:16:38.549Z,65.32
2022-12-08T14:19:43.940Z,65.28
2022-12-08T14:22:46.409Z,65.31
2022-12-08T14:25:48.382Z,64.98
2022-12-08T14:28:50.012Z,65.20
2022-12-08T14:31:53.928Z,65.00
2022-12-08T14:34:55.674Z,65.12
2022-12-08T14:38:01.499Z,64.80
2022-12-08T14:41:06.557Z,64.99
2022-12-08T14:44:23.799Z,64.97
2022-12-08T14:47:32.738Z,65.03
2022-12-08T14:50:45.247Z,65.16
2022-12-08T14:53:56.282Z,65.92
2022-12-08T14:57:00.284Z,66.96
2022-12-08T15:00:09.070Z,65.96
2022-12-08T15:03:13.330Z,64.99
2022-12-08T15:06:15.248Z,64.87
2022-12-08T15:09:48.710Z,64.96
2022-12-08T15:13:19.651Z,65.00
2022-12-08T15:16:32.050Z,64.68
2022-12-08T15:19:34.236Z,65.04
2022-12-08T15:22:35.774Z,64.75
2022-12-08T15:25:37.755Z,65.10
2022-12-08T15:28:39.272Z,65.00
2022-12-08T15:31:40.933Z,64.75
2022-12-08T15:34:42.638Z,65.08
2022-12-08T15:37:44.668Z,64.85
2022-12-08T15:40:46.391Z,64.92
2022-12-08T15:43:47.884Z,64.77
2022-12-08T15:46:50.192Z,64.63
2022-12-08T15:49:55.533Z,65.07
2022-12-08T15:52:57.066Z,64.67
2022-12-08T15:59:24.019Z,64.59
2022-12-08T16:02:25.753Z,64.58
2022-12-08T16:05:44.521Z,64.78
2022-12-08T16:09:06.373Z,64.87
2022-12-08T16:13:40.540Z,64.77
2022-12-08T16:16:02.207Z,64.52
2022-12-08T16:19:03.852Z,64.66
2022-12-08T16:22:44.792Z,64.76
2022-12-08T16:25:36.430Z,64.71
2022-12-08T16:28:55.268Z,64.36
2022-12-08T16:31:56.911Z,64.32
2022-12-08T16:34:58.560Z,64.56
2022-12-08T16:38:00.147Z,64.43
2022-12-08T16:41:20.400Z,64.63
2022-12-08T16:44:21.979Z,65.04
2022-12-08T16:47:23.547Z,65.83
2022-12-08T16:50:30.863Z,66.28
2022-12-08T16:53:32.374Z,66.23
2022-12-08T16:56:34.003Z,65.33
2022-12-08T16:59:37.411Z,65.60
2022-12-08T17:02:38.977Z,64.98
2022-12-08T17:05:41.555Z,64.37
2022-12-08T17:08:44.090Z,64.19
2022-12-08T17:11:45.664Z,64.17
2022-12-08T17:14:47.458Z,64.06
2022-12-08T17:17:49.018Z,64.13
2022-12-08T17:20:50.561Z,64.44
2022-12-08T17:23:52.095Z,64.19
2022-12-08T17:26:53.644Z,64.29
2022-12-08T17:29:55.252Z,64.32
2022-12-08T17:32:57.179Z,64.72
2022-12-08T17:35:58.730Z,64.64
2022-12-08T17:39:01.238Z,64.64
2022-12-08T17:42:02.988Z,64.42
2022-12-08T17:45:06.492Z,64.18
2022-12-08T17:48:08.535Z,64.40
2022-12-08T17:51:10.224Z,64.61
2022-12-08T17:54:11.779Z,64.51
2022-12-08T17:57:13.380Z,64.64
2022-12-08T18:00:15.798Z,64.39
2022-12-08T18:03:18.258Z,64.42
2022-12-08T18:06:20.330Z,64.30
2022-12-08T18:09:21.999Z,64.43
2022-12-08T18:12:24.074Z,64.31
2022-12-08T18:15:26.109Z,64.37
2022-12-08T18:18:27.705Z,64.55
2022-12-08T18:21:29.401Z,64.49
2022-12-08T18:24:31.295Z,64.33
2022-12-08T18:27:36.288Z,64.45
2022-12-08T18:30:40.605Z,64.38
2022-12-08T18:33:43.521Z,64.42
2022-12-08T18:36:45.074Z,64.26
2022-12-08T18:39:46.619Z,64.26
2022-12-08T18:42:48.258Z,64.11
2022-12-08T18:45:49.789Z,64.05
2022-12-08T18:48:52.175Z,64.10
2022-12-08T18:51:53.777Z,64.30
2022-12-08T18:55:06.249Z,63.99
2022-12-08T18:58:10.902Z,63.98
2022-12-08T19:01:16.120Z,63.97
2022-12-08T19:04:28.386Z,64.11
2022-12-08T19:07:30.836Z,64.92
2022-12-08T19:10:35.516Z,64.52
2022-12-08T19:13:37.268Z,64.50
2022-12-08T19:16:38.998Z,64.13
2022-12-08T19:19:40.525Z,64.20
2022-12-08T19:22:42.067Z,64.18
2022-12-08T19:25:43.675Z,64.15
2022-12-08T19:28:45.464Z,64.14
2022-12-08T19:31:47.158Z,64.10
2022-12-08T19:34:48.785Z,64.04
2022-12-08T19:37:50.408Z,64.11
2022-12-08T19:41:10.314Z,64.18
2022-12-08T19:44:34.321Z,64.10
2022-12-08T19:47:36.063Z,64.13
2022-12-08T19:50:40.412Z,64.05
2022-12-08T19:53:47.290Z,64.30
2022-12-08T19:56:49.397Z,63.92
2022-12-08T19:59:56.166Z,63.99
2022-12-08T20:02:59.839Z,64.15
2022-12-08T20:06:01.622Z,64.08
2022-12-08T20:09:03.214Z,63.88
2022-12-08T20:12:05.103Z,63.88
2022-12-08T20:15:08.698Z,63.91
2022-12-08T20:18:11.896Z,63.93
2022-12-08T20:21:13.595Z,63.94
2022-12-08T20:24:16.876Z,64.02
2022-12-08T20:27:18.428Z,63.94
2022-12-08T20:30:20.064Z,64.01
2022-12-08T20:33:21.875Z,64.04
2022-12-08T20:36:23.649Z,63.84
2022-12-08T20:39:25.620Z,63.93
2022-12-08T20:42:27.289Z,63.76
2022-12-08T20:45:28.899Z,63.78
2022-12-08T20:48:30.520Z,63.92
2022-12-08T20:51:33.598Z,63.94
2022-12-08T20:54:36.735Z,63.61
2022-12-08T20:57:38.337Z,63.81
2022-12-08T21:00:39.939Z,63.80
2022-12-08T21:03:42.277Z,63.77
2022-12-08T21:06:44.003Z,63.86
2022-12-08T21:09:45.872Z,63.74
2022-12-08T21:12:47.611Z,63.96
2022-12-08T21:15:49.438Z,63.78
2022-12-08T21:18:51.126Z,63.81
2022-12-08T21:21:52.823Z,63.97
2022-12-08T21:24:54.473Z,63.72
2022-12-08T21:27:56.024Z,63.71
2022-12-08T21:30:57.862Z,63.74
2022-12-08T21:34:01.299Z,63.66
2022-12-08T21:37:03.092Z,63.65
2022-12-08T21:40:06.242Z,63.64
2022-12-08T21:43:08.177Z,63.51
2022-12-08T21:46:17.209Z,63.50
2022-12-08T21:49:19.226Z,63.70
2022-12-08T21:52:20.818Z,63.84
2022-12-08T21:55:23.867Z,63.74
2022-12-08T21:58:26.418Z,63.78
2022-12-08T22:01:28.628Z,63.44
2022-12-08T22:04:30.652Z,63.76
2022-12-08T22:07:32.670Z,63.71
2022-12-08T22:10:34.363Z,63.93
2022-12-08T22:13:38.999Z,63.74
2022-12-08T22:16:40.934Z,63.59
2022-12-08T22:19:42.944Z,63.61
2022-12-08T22:22:45.965Z,63.69
2022-12-08T22:25:58.384Z,63.72
2022-12-08T22:29:00.490Z,63.58
2022-12-08T22:32:02.225Z,63.58
2022-12-08T22:35:04.134Z,63.58
2022-12-08T22:38:05.634Z,63.59
2022-12-08T22:41:07.938Z,63.44
2022-12-08T22:44:09.614Z,63.60
2022-12-08T22:47:11.549Z,63.62
2022-12-08T22:50:13.187Z,63.57
2022-12-08T22:53:14.885Z,63.58
2022-12-08T22:56:17.874Z,63.56
2022-12-08T22:59:19.450Z,63.44
2022-12-08T23:02:20.986Z,63.60
2022-12-08T23:05:22.630Z,63.43
2022-12-08T23:08:24.814Z,63.56
2022-12-08T23:11:29.890Z,63.58
2022-12-08T23:14:31.416Z,63.40
2022-12-08T23:17:33.219Z,63.42
2022-12-08T23:20:35.134Z,63.30
2022-12-08T23:23:37.150Z,63.34
2022-12-08T23:26:38.796Z,63.42
2022-12-08T23:29:40.407Z,63.39
2022-12-08T23:32:42.274Z,63.61
2022-12-08T23:35:43.897Z,63.68
2022-12-08T23:38:45.836Z,63.69
2022-12-08T23:41:47.578Z,63.83
2022-12-08T23:44:49.427Z,63.91
2022-12-08T23:47:51.034Z,63.93
2022-12-08T23:50:52.720Z,64.01
2022-12-08T23:53:54.291Z,63.92
2022-12-08T23:56:55.928Z,63.96
2022-12-08T23:59:57.514Z,63.94
